createdAt,value
2019-01-31T00:01:54.335Z,6.37
2019-01-31T00:04:55.584Z,5.35
2019-01-31T00:08:16.589Z,5.72
2019-01-31T00:11:16.165Z,4.60
2019-01-31T00:14:42.576Z,5.20
2019-01-31T00:17:51.755Z,5.60
2019-01-31T00:21:09.677Z,5.60
2019-01-31T00:24:14.886Z,5.62
2019-01-31T00:27:56.215Z,5.70
2019-01-31T00:31:49.181Z,5.15
2019-01-31T00:34:55.201Z,5.70
2019-01-31T00:38:13.961Z,5.58
2019-01-31T00:41:35.250Z,5.60
2019-01-31T00:45:20.474Z,5.75
2019-01-31T00:48:25.190Z,5.97
2019-01-31T00:51:52.002Z,7.17
2019-01-31T00:55:07.431Z,5.95
2019-01-31T00:58:20.359Z,6.05
2019-01-31T01:01:51.847Z,6.50
2019-01-31T01:05:11.190Z,5.75
2019-01-31T01:08:46.202Z,5.65
2019-01-31T01:12:04.511Z,5.17
2019-01-31T01:15:26.945Z,4.90
2019-01-31T01:18:15.761Z,6.05
2019-01-31T01:21:01.995Z,5.05
2019-01-31T01:24:10.189Z,4.90
2019-01-31T01:27:14.287Z,4.75
2019-01-31T01:30:44.882Z,5.55
2019-01-31T01:34:07.935Z,4.92
2019-01-31T01:37:12.713Z,4.70
2019-01-31T01:40:39.517Z,4.20
2019-01-31T01:43:34.961Z,4.85
2019-01-31T01:46:57.577Z,4.25
2019-01-31T01:50:03.175Z,4.30
2019-01-31T01:53:25.083Z,4.92
2019-01-31T01:57:21.306Z,4.92
2019-01-31T02:00:28.046Z,4.15
2019-01-31T02:03:56.504Z,4.30
2019-01-31T02:07:36.961Z,4.10
2019-01-31T02:10:35.336Z,4.28
2019-01-31T02:14:00.496Z,3.80
2019-01-31T02:17:12.665Z,4.50
2019-01-31T02:20:12.149Z,3.40
2019-01-31T02:23:44.594Z,3.85
2019-01-31T02:27:39.125Z,4.17
2019-01-31T02:31:19.322Z,4.25
2019-01-31T02:34:24.602Z,4.35
2019-01-31T02:37:53.609Z,4.00
2019-01-31T02:41:15.948Z,3.72
2019-01-31T02:44:42.421Z,3.72
2019-01-31T02:47:56.493Z,4.20
2019-01-31T02:50:48.256Z,4.12
2019-01-31T02:54:21.792Z,4.00
2019-01-31T02:57:50.644Z,4.85
2019-01-31T03:01:08.975Z,4.12
2019-01-31T03:04:30.758Z,5.22
2019-01-31T03:07:57.736Z,4.20
2019-01-31T03:10:46.137Z,5.22
2019-01-31T03:13:31.989Z,4.60
2019-01-31T03:17:13.409Z,4.05
2019-01-31T03:20:25.437Z,4.75
2019-01-31T03:23:48.601Z,4.78
2019-01-31T03:26:59.852Z,4.35
2019-01-31T03:30:48.964Z,3.95
2019-01-31T03:34:22.714Z,3.80
2019-01-31T03:37:47.751Z,3.67
2019-01-31T03:40:59.446Z,3.90
2019-01-31T03:44:02.263Z,4.50
2019-01-31T03:47:23.127Z,4.05
2019-01-31T03:50:51.558Z,3.60
2019-01-31T03:54:40.800Z,3.72
2019-01-31T03:57:56.738Z,4.00
2019-01-31T04:01:22.216Z,4.03
2019-01-31T04:04:05.663Z,3.77
2019-01-31T04:06:38.778Z,3.62
2019-01-31T04:09:12.302Z,3.65
2019-01-31T04:11:44.094Z,3.60
2019-01-31T04:14:15.929Z,2.50
2019-01-31T04:16:47.733Z,3.60
2019-01-31T04:19:19.551Z,4.12
2019-01-31T04:21:53.660Z,3.75
2019-01-31T04:24:25.492Z,3.60
2019-01-31T04:26:57.347Z,3.50
2019-01-31T04:29:29.151Z,3.67
2019-01-31T04:32:01.051Z,3.50
2019-01-31T04:34:32.859Z,4.67
2019-01-31T04:37:04.694Z,4.95
2019-01-31T04:39:36.490Z,5.33
2019-01-31T04:42:08.337Z,4.17
2019-01-31T04:44:40.160Z,4.37
2019-01-31T04:47:11.983Z,4.70
2019-01-31T04:49:43.833Z,4.72
2019-01-31T04:52:16.194Z,4.62
2019-01-31T04:54:48.032Z,4.00
2019-01-31T04:57:19.900Z,3.83
2019-01-31T04:59:51.748Z,4.40
2019-01-31T05:02:23.611Z,4.30
2019-01-31T05:04:55.409Z,6.40
2019-01-31T05:07:28.293Z,10.75
2019-01-31T05:10:00.474Z,6.65
2019-01-31T05:12:32.356Z,7.60
2019-01-31T05:15:04.470Z,5.53
2019-01-31T05:17:36.302Z,5.25
2019-01-31T05:20:12.417Z,4.62
2019-01-31T05:22:44.271Z,5.30
2019-01-31T05:25:17.564Z,5.30
2019-01-31T05:27:49.407Z,4.70
2019-01-31T05:30:21.240Z,5.00
2019-01-31T05:32:53.074Z,5.30
2019-01-31T05:35:24.903Z,5.00
2019-01-31T05:37:56.736Z,5.28
2019-01-31T05:40:28.541Z,5.92
2019-01-31T05:43:00.389Z,6.03
2019-01-31T05:45:32.253Z,7.40
2019-01-31T05:48:04.103Z,6.45
2019-01-31T05:50:35.933Z,5.10
2019-01-31T05:53:07.885Z,3.98
2019-01-31T05:55:41.421Z,6.83
2019-01-31T05:58:13.280Z,7.33
2019-01-31T06:00:48.357Z,6.35
2019-01-31T06:03:21.220Z,5.70
2019-01-31T06:05:53.020Z,4.30
2019-01-31T06:08:27.423Z,5.55
2019-01-31T06:11:07.613Z,6.80
2019-01-31T06:13:34.386Z,7.25
2019-01-31T06:16:06.897Z,5.05
2019-01-31T06:18:39.897Z,6.30
2019-01-31T06:21:14.345Z,6.30
2019-01-31T06:23:46.210Z,6.72
2019-01-31T06:26:19.731Z,6.12
2019-01-31T06:28:53.297Z,5.58
2019-01-31T06:31:27.440Z,5.67
2019-01-31T06:34:07.529Z,5.33
2019-01-31T06:36:46.183Z,7.08
2019-01-31T06:39:21.955Z,6.80
2019-01-31T06:41:57.926Z,5.37
2019-01-31T06:44:30.715Z,5.00
2019-01-31T06:47:02.562Z,5.95
2019-01-31T06:49:39.451Z,4.90
2019-01-31T06:52:12.278Z,4.83
2019-01-31T06:54:45.405Z,5.28
2019-01-31T06:57:17.238Z,6.20
2019-01-31T06:59:49.087Z,5.20
2019-01-31T07:02:26.674Z,5.40
2019-01-31T07:04:59.573Z,4.70
2019-01-31T07:07:34.802Z,5.00
2019-01-31T07:10:13.980Z,4.70
2019-01-31T07:12:45.804Z,5.40
2019-01-31T07:15:17.628Z,7.35
2019-01-31T07:17:56.887Z,7.60
2019-01-31T07:20:28.702Z,7.15
2019-01-31T07:23:00.522Z,5.95
2019-01-31T07:25:32.347Z,6.17
2019-01-31T07:28:31.525Z,5.95
2019-01-31T07:31:03.537Z,7.37
2019-01-31T07:33:35.418Z,6.20
2019-01-31T07:36:08.875Z,7.17
2019-01-31T07:38:46.794Z,7.28
2019-01-31T07:41:21.868Z,5.37
2019-01-31T07:43:56.275Z,4.90
2019-01-31T07:46:31.042Z,4.90
2019-01-31T07:49:03.858Z,7.03
2019-01-31T07:51:35.707Z,6.83
2019-01-31T07:54:07.650Z,6.70
2019-01-31T07:56:41.246Z,5.92
2019-01-31T07:59:13.110Z,8.53
2019-01-31T08:01:45.063Z,7.90
2019-01-31T08:04:16.903Z,7.58
2019-01-31T08:06:48.813Z,9.60
2019-01-31T08:09:20.640Z,6.20
2019-01-31T08:11:53.053Z,5.55
2019-01-31T08:14:24.956Z,7.03
2019-01-31T08:16:56.792Z,15.80
2019-01-31T08:19:28.630Z,10.35
2019-01-31T08:22:03.214Z,9.43
2019-01-31T08:24:37.472Z,7.60
2019-01-31T08:27:17.983Z,11.28
2019-01-31T08:29:52.473Z,8.58
2019-01-31T08:32:27.065Z,5.35
2019-01-31T08:34:58.849Z,6.83
2019-01-31T08:37:30.580Z,5.12
2019-01-31T08:40:03.980Z,4.60
2019-01-31T08:42:40.508Z,3.52
2019-01-31T08:45:13.470Z,3.40
2019-01-31T08:47:45.464Z,3.42
2019-01-31T08:50:21.749Z,3.70
2019-01-31T08:52:56.607Z,3.40
2019-01-31T08:55:28.505Z,3.40
2019-01-31T08:58:06.263Z,3.05
2019-01-31T09:00:38.182Z,3.30
2019-01-31T09:03:10.068Z,3.20
2019-01-31T09:05:43.622Z,2.90
2019-01-31T09:08:15.499Z,2.95
2019-01-31T09:13:30.225Z,2.27
2019-01-31T09:16:03.409Z,2.42
2019-01-31T09:18:38.508Z,2.92
2019-01-31T09:21:57.816Z,3.10
2019-01-31T09:25:49.146Z,2.27
2019-01-31T09:29:27.551Z,2.45
2019-01-31T09:32:52.394Z,3.17
2019-01-31T09:36:27.680Z,2.10
2019-01-31T09:39:52.872Z,2.62
2019-01-31T09:42:42.328Z,2.90
2019-01-31T09:46:00.971Z,3.50
2019-01-31T09:49:11.851Z,3.10
2019-01-31T09:52:10.067Z,2.90
2019-01-31T09:55:47.480Z,2.50
2019-01-31T09:58:39.043Z,2.67
2019-01-31T10:02:13.101Z,2.83
2019-01-31T10:05:42.428Z,3.35
2019-01-31T10:08:55.522Z,3.10
2019-01-31T10:12:01.196Z,2.80
2019-01-31T10:15:14.397Z,3.12
2019-01-31T10:18:42.406Z,3.00
2019-01-31T10:22:23.955Z,3.00
2019-01-31T10:25:54.939Z,3.10
2019-01-31T10:29:39.051Z,3.70
2019-01-31T10:32:55.520Z,3.77
2019-01-31T10:36:52.159Z,4.10
2019-01-31T10:39:58.793Z,3.58
2019-01-31T10:43:18.220Z,3.72
2019-01-31T10:46:31.539Z,3.90
2019-01-31T10:49:44.111Z,3.50
2019-01-31T10:53:14.503Z,3.37
2019-01-31T10:56:44.411Z,3.00
2019-01-31T10:59:33.371Z,2.90
2019-01-31T11:02:57.052Z,3.87
2019-01-31T11:06:31.929Z,2.60
2019-01-31T11:09:55.954Z,2.42
2019-01-31T11:13:32.763Z,2.42
2019-01-31T11:16:48.148Z,2.50
2019-01-31T11:20:08.949Z,2.92
2019-01-31T11:23:49.934Z,2.95
2019-01-31T11:27:29.474Z,3.02
2019-01-31T11:30:49.226Z,2.30
2019-01-31T11:34:32.997Z,2.12
2019-01-31T11:37:25.177Z,2.30
2019-01-31T11:40:44.511Z,2.50
2019-01-31T11:44:00.742Z,4.47
2019-01-31T11:47:01.336Z,2.47
2019-01-31T11:50:38.603Z,2.60
2019-01-31T11:53:51.660Z,2.08
2019-01-31T11:57:23.988Z,2.83
2019-01-31T11:59:56.013Z,2.37
2019-01-31T12:02:29.815Z,2.30
2019-01-31T12:05:01.657Z,2.30
2019-01-31T12:07:36.542Z,2.22
2019-01-31T12:10:07.903Z,2.83
2019-01-31T12:12:39.755Z,2.40
2019-01-31T12:15:11.923Z,2.72
2019-01-31T12:17:44.698Z,2.20
2019-01-31T12:20:17.437Z,2.30
2019-01-31T12:22:49.374Z,2.25
2019-01-31T12:25:21.288Z,2.10
2019-01-31T12:27:53.375Z,2.10
2019-01-31T12:30:27.619Z,1.45
2019-01-31T12:32:59.486Z,1.80
2019-01-31T12:35:31.332Z,1.87
2019-01-31T12:38:05.915Z,1.87
2019-01-31T12:40:37.765Z,1.75
2019-01-31T12:43:09.655Z,1.85
2019-01-31T12:45:41.265Z,1.70
2019-01-31T12:48:12.820Z,1.70
2019-01-31T12:50:44.731Z,1.65
2019-01-31T12:53:19.501Z,1.50
2019-01-31T12:55:53.299Z,2.53
2019-01-31T12:58:33.274Z,1.60
2019-01-31T13:00:58.240Z,1.90
2019-01-31T13:03:32.873Z,1.80
2019-01-31T13:06:05.173Z,1.77
2019-01-31T13:08:36.710Z,1.90
2019-01-31T13:11:11.879Z,4.78
2019-01-31T13:13:46.200Z,2.07
2019-01-31T13:16:17.174Z,1.75
2019-01-31T13:18:49.000Z,2.00
2019-01-31T13:21:20.986Z,1.83
2019-01-31T13:23:52.679Z,2.07
2019-01-31T13:26:24.889Z,2.00
2019-01-31T13:28:56.721Z,1.90
2019-01-31T13:31:28.595Z,1.60
2019-01-31T13:34:00.145Z,1.50
2019-01-31T13:36:33.210Z,2.00
2019-01-31T13:39:09.616Z,1.63
2019-01-31T13:41:42.067Z,2.05
2019-01-31T13:44:13.978Z,1.98
2019-01-31T13:46:45.558Z,2.03
2019-01-31T13:49:17.963Z,2.30
2019-01-31T13:51:50.018Z,1.87
2019-01-31T13:54:21.584Z,3.20
2019-01-31T13:56:53.091Z,1.90
2019-01-31T13:59:27.752Z,3.23
2019-01-31T14:01:59.617Z,3.40
2019-01-31T14:04:31.160Z,2.33
2019-01-31T14:07:03.809Z,1.60
2019-01-31T14:09:36.416Z,1.40
2019-01-31T14:12:07.961Z,2.00
2019-01-31T14:14:39.490Z,1.67
2019-01-31T14:17:11.308Z,1.72
2019-01-31T14:19:43.196Z,1.70
2019-01-31T14:22:14.775Z,2.60
2019-01-31T14:24:48.978Z,2.00
2019-01-31T14:27:20.958Z,2.20
2019-01-31T14:29:52.809Z,2.25
2019-01-31T14:32:26.709Z,2.00
2019-01-31T14:34:58.647Z,1.90
2019-01-31T14:37:30.221Z,2.00
2019-01-31T14:40:01.813Z,1.90
2019-01-31T14:42:36.036Z,1.80
2019-01-31T14:45:07.877Z,1.60
2019-01-31T14:47:39.440Z,1.30
2019-01-31T14:50:23.557Z,2.70
2019-01-31T14:52:57.111Z,1.90
2019-01-31T14:55:29.840Z,1.80
2019-01-31T14:58:06.195Z,2.27
2019-01-31T15:00:37.850Z,1.77
2019-01-31T15:03:11.425Z,1.40
2019-01-31T15:05:44.879Z,2.00
2019-01-31T15:08:17.837Z,2.07
2019-01-31T15:10:51.484Z,1.93
2019-01-31T15:13:24.827Z,2.80
2019-01-31T15:16:01.679Z,2.03
2019-01-31T15:18:36.438Z,1.70
2019-01-31T15:21:19.802Z,2.10
2019-01-31T15:23:54.127Z,1.73
2019-01-31T15:26:29.006Z,2.30
2019-01-31T15:29:11.869Z,2.23
2019-01-31T15:31:42.193Z,2.90
2019-01-31T15:34:13.809Z,3.30
2019-01-31T15:36:45.379Z,2.60
2019-01-31T15:39:19.014Z,2.37
2019-01-31T15:49:56.494Z,4.00
2019-01-31T15:52:28.359Z,4.40
2019-01-31T15:55:06.253Z,3.90
2019-01-31T15:57:40.714Z,3.43
2019-01-31T16:00:37.566Z,2.97
2019-01-31T16:03:13.901Z,3.30
2019-01-31T16:05:49.646Z,2.90
2019-01-31T16:08:21.696Z,2.70
2019-01-31T16:10:55.196Z,2.60
2019-01-31T16:13:27.055Z,2.55
2019-01-31T16:15:59.052Z,3.10
2019-01-31T16:18:33.757Z,2.70
2019-01-31T16:21:08.793Z,2.80
2019-01-31T16:23:45.815Z,2.62
2019-01-31T16:26:18.838Z,2.70
2019-01-31T16:28:54.768Z,2.37
2019-01-31T16:31:34.362Z,2.22
2019-01-31T16:34:07.313Z,2.20
2019-01-31T16:36:39.220Z,2.83
2019-01-31T16:39:12.740Z,4.20
2019-01-31T16:41:47.652Z,3.35
2019-01-31T16:44:19.619Z,3.92
2019-01-31T16:46:54.721Z,3.70
2019-01-31T16:49:29.036Z,4.10
2019-01-31T16:52:04.208Z,3.70
2019-01-31T16:54:43.412Z,5.70
2019-01-31T16:57:16.497Z,6.05
2019-01-31T16:59:51.627Z,5.47
2019-01-31T17:02:26.121Z,5.30
2019-01-31T17:04:57.945Z,7.17
2019-01-31T17:07:35.908Z,8.78
2019-01-31T17:10:11.511Z,9.10
2019-01-31T17:12:45.421Z,9.28
2019-01-31T17:15:21.584Z,9.88
2019-01-31T17:17:53.750Z,8.28
2019-01-31T17:20:46.690Z,7.75
2019-01-31T17:23:18.540Z,7.00
2019-01-31T17:25:51.747Z,34.53
2019-01-31T17:28:23.710Z,36.42
2019-01-31T17:30:55.667Z,6.50
2019-01-31T17:33:27.574Z,9.00
2019-01-31T17:36:00.547Z,7.78
2019-01-31T17:38:34.503Z,5.10
2019-01-31T17:41:06.415Z,5.50
2019-01-31T17:43:38.283Z,5.75
2019-01-31T17:46:12.949Z,5.78
2019-01-31T17:48:48.058Z,12.18
2019-01-31T17:51:23.750Z,17.10
2019-01-31T17:53:57.084Z,7.62
2019-01-31T17:56:29.043Z,7.40
2019-01-31T17:59:03.765Z,7.67
2019-01-31T18:01:36.022Z,7.55
2019-01-31T18:04:07.878Z,8.05
2019-01-31T18:06:41.124Z,5.50
2019-01-31T18:11:57.826Z,5.95
2019-01-31T18:14:29.707Z,4.90
2019-01-31T18:17:04.446Z,5.45
2019-01-31T18:19:36.441Z,5.30
2019-01-31T18:22:11.154Z,5.33
2019-01-31T18:24:42.999Z,4.87
2019-01-31T18:27:20.154Z,4.80
2019-01-31T18:29:51.995Z,5.15
2019-01-31T18:37:58.674Z,4.50
2019-01-31T18:40:38.185Z,4.97
2019-01-31T18:43:20.361Z,5.40
2019-01-31T18:45:53.813Z,6.05
2019-01-31T18:48:27.525Z,5.25
2019-01-31T18:51:17.638Z,4.62
2019-01-31T18:53:51.000Z,5.30
2019-01-31T18:56:25.908Z,5.40
2019-01-31T18:59:04.699Z,5.58
2019-01-31T19:01:51.668Z,4.87
2019-01-31T19:04:28.872Z,4.62
2019-01-31T19:07:01.866Z,11.70
2019-01-31T19:09:52.000Z,10.05
2019-01-31T19:12:32.556Z,4.90
2019-01-31T19:15:07.226Z,5.62
2019-01-31T19:17:43.006Z,5.10
2019-01-31T19:20:21.967Z,5.47
2019-01-31T19:22:55.525Z,5.20
2019-01-31T19:25:33.203Z,4.37
2019-01-31T19:28:08.007Z,4.25
2019-01-31T19:30:41.532Z,4.33
2019-01-31T19:33:13.433Z,4.92
2019-01-31T19:35:45.340Z,4.45
2019-01-31T19:38:17.213Z,5.37
2019-01-31T19:40:55.885Z,4.75
2019-01-31T19:43:36.645Z,4.90
2019-01-31T19:46:16.000Z,5.10
2019-01-31T19:48:43.822Z,7.25
2019-01-31T19:51:21.372Z,5.62
2019-01-31T19:53:54.475Z,6.53
2019-01-31T19:56:32.020Z,6.37
2019-01-31T19:59:06.629Z,5.28
2019-01-31T20:01:44.264Z,5.58
2019-01-31T20:04:16.094Z,4.80
2019-01-31T20:06:49.259Z,5.50
2019-01-31T20:09:24.682Z,7.37
2019-01-31T20:11:58.323Z,7.45
2019-01-31T20:14:32.246Z,6.90
2019-01-31T20:17:08.446Z,6.62
2019-01-31T20:19:46.315Z,5.78
2019-01-31T20:22:20.840Z,5.60
2019-01-31T20:24:58.409Z,5.10
2019-01-31T20:27:31.291Z,7.92
2019-01-31T20:30:03.625Z,9.50
2019-01-31T20:32:35.773Z,7.35
2019-01-31T20:35:10.825Z,10.30
2019-01-31T20:37:42.944Z,9.58
2019-01-31T20:40:18.551Z,9.15
2019-01-31T20:42:53.463Z,7.70
2019-01-31T20:45:25.334Z,7.42
2019-01-31T20:47:58.508Z,4.95
2019-01-31T20:50:35.942Z,5.30
2019-01-31T20:53:08.921Z,5.45
2019-01-31T20:55:40.928Z,4.70
2019-01-31T20:58:20.339Z,4.50
2019-01-31T21:00:57.081Z,4.30
2019-01-31T21:03:28.922Z,4.72
2019-01-31T21:06:02.510Z,4.50
2019-01-31T21:08:34.569Z,4.53
2019-01-31T21:11:09.362Z,4.83
2019-01-31T21:13:40.315Z,4.45
2019-01-31T21:16:15.326Z,4.72
2019-01-31T21:18:50.652Z,5.10
2019-01-31T21:21:22.518Z,5.17
2019-01-31T21:23:55.993Z,4.70
2019-01-31T21:26:27.821Z,5.30
2019-01-31T21:28:59.649Z,5.37
2019-01-31T21:31:34.318Z,5.10
2019-01-31T21:34:06.366Z,5.40
2019-01-31T21:39:33.352Z,5.92
2019-01-31T21:42:07.863Z,5.30
2019-01-31T21:44:38.982Z,4.60
2019-01-31T21:47:13.881Z,7.12
2019-01-31T21:49:52.048Z,5.37
2019-01-31T21:52:29.482Z,5.17
2019-01-31T21:55:01.332Z,4.33
2019-01-31T21:57:33.186Z,3.80
2019-01-31T22:00:11.439Z,3.65
2019-01-31T22:02:44.266Z,4.03
2019-01-31T22:05:16.705Z,4.00
2019-01-31T22:07:51.509Z,3.70
2019-01-31T22:10:25.665Z,3.37
2019-01-31T22:13:02.796Z,3.33
2019-01-31T22:15:34.401Z,3.00
2019-01-31T22:18:09.514Z,3.00
2019-01-31T22:20:41.360Z,3.45
2019-01-31T22:23:13.283Z,3.15
2019-01-31T22:25:46.610Z,3.08
2019-01-31T22:28:18.516Z,3.50
2019-01-31T22:30:50.410Z,2.77
2019-01-31T22:33:24.506Z,2.27
2019-01-31T22:35:59.541Z,2.12
2019-01-31T22:38:31.374Z,2.30
2019-01-31T22:41:05.964Z,2.40
2019-01-31T22:43:40.555Z,2.12
2019-01-31T22:46:12.475Z,2.05
2019-01-31T22:48:46.419Z,2.40
2019-01-31T22:51:20.288Z,2.30
2019-01-31T22:53:56.068Z,2.77
2019-01-31T22:56:30.289Z,2.72
2019-01-31T22:59:05.823Z,2.65
2019-01-31T23:01:47.935Z,2.50
2019-01-31T23:04:22.143Z,2.42
2019-01-31T23:06:56.140Z,3.08
2019-01-31T23:09:29.310Z,2.58
2019-01-31T23:12:12.392Z,3.05
2019-01-31T23:14:51.579Z,2.80
2019-01-31T23:17:36.937Z,2.72
2019-01-31T23:20:07.803Z,2.85
2019-01-31T23:22:41.482Z,2.55
2019-01-31T23:25:13.622Z,3.30
2019-01-31T23:27:46.498Z,2.85
2019-01-31T23:30:18.505Z,2.70
2019-01-31T23:32:50.385Z,3.22
2019-01-31T23:35:22.289Z,2.85
2019-01-31T23:37:55.253Z,3.55
2019-01-31T23:40:27.083Z,3.37
2019-01-31T23:42:58.889Z,5.50
2019-01-31T23:45:30.778Z,3.95
2019-01-31T23:48:04.514Z,4.30
2019-01-31T23:50:39.335Z,3.60
2019-01-31T23:53:13.475Z,3.25
2019-01-31T23:55:45.282Z,3.30
2019-01-31T23:58:19.420Z,4.00
